TimeCST,TemperatureF,Dew PointF,Humidity,Sea Level PressureIn,VisibilityMPH,Wind Direction,Wind SpeedMPH,Gust SpeedMPH,PrecipitationIn,Events,Conditions,WindDirDegrees,DateUTC
12:53 AM,30.0,21.9,72,29.96,10.0,NW,6.9,-,N/A,,Clear,320,2012-12-08 06:53:00
1:53 AM,28.9,21.0,72,29.95,10.0,NNW,5.8,-,N/A,,Partly Cloudy,340,2012-12-08 07:53:00
2:53 AM,28.0,19.0,69,29.94,10.0,North,6.9,-,N/A,,Clear,350,2012-12-08 08:53:00
3:53 AM,28.0,19.0,69,29.93,10.0,North,3.5,-,N/A,,Clear,350,2012-12-08 09:53:00
5:53 AM,26.1,19.0,75,29.94,10.0,WNW,5.8,-,N/A,,Clear,290,2012-12-08 11:53:00
6:53 AM,26.1,19.0,75,29.94,10.0,West,5.8,-,N/A,,Clear,280,2012-12-08 12:53:00
7:53 AM,26.1,19.0,75,29.94,10.0,WNW,4.6,-,N/A,,Clear,290,2012-12-08 13:53:00
8:53 AM,28.9,19.9,69,29.94,10.0,SW,3.5,-,N/A,,Clear,230,2012-12-08 14:53:00
9:53 AM,37.0,27.0,67,29.92,10.0,SSW,5.8,-,N/A,,Clear,200,2012-12-08 15:53:00
10:53 AM,39.0,30.0,70,29.90,10.0,South,11.5,-,N/A,,Partly Cloudy,170,2012-12-08 16:53:00
11:53 AM,39.9,33.1,77,29.87,10.0,South,15.0,-,N/A,,Overcast,190,2012-12-08 17:53:00
12:06 PM,39.2,32.0,75,29.85,10.0,South,12.7,-,N/A,,Overcast,190,2012-12-08 18:06:00
12:39 PM,41.0,33.8,76,29.81,10.0,South,11.5,-,N/A,,Overcast,180,2012-12-08 18:39:00
12:53 PM,42.1,34.0,73,29.81,10.0,South,13.8,-,N/A,,Overcast,180,2012-12-08 18:53:00
1:15 PM,42.8,33.8,70,29.78,10.0,South,12.7,-,N/A,,Overcast,180,2012-12-08 19:15:00
1:53 PM,43.0,35.1,74,29.75,10.0,South,18.4,-,N/A,,Overcast,180,2012-12-08 19:53:00
2:53 PM,45.0,35.1,68,29.72,10.0,South,17.3,23.0,N/A,,Mostly Cloudy,190,2012-12-08 20:53:00
3:00 PM,44.6,35.6,71,29.71,10.0,SSW,16.1,-,N/A,,Mostly Cloudy,200,2012-12-08 21:00:00
3:16 PM,46.4,35.6,66,29.72,10.0,SSW,13.8,-,N/A,,Partly Cloudy,210,2012-12-08 21:16:00
3:53 PM,46.9,34.0,61,29.69,10.0,South,12.7,-,N/A,,Clear,170,2012-12-08 21:53:00
4:53 PM,46.0,34.0,63,29.67,10.0,South,9.2,-,N/A,,Clear,180,2012-12-08 22:53:00
5:53 PM,42.1,33.1,70,29.69,10.0,East,4.6,-,N/A,,Clear,100,2012-12-08 23:53:00
6:53 PM,41.0,35.1,79,29.69,10.0,ESE,6.9,-,N/A,,Clear,110,2012-12-09 00:53:00
7:53 PM,39.0,34.0,82,29.69,10.0,ESE,6.9,-,N/A,,Clear,120,2012-12-09 01:53:00
8:53 PM,37.9,33.1,83,29.68,10.0,East,6.9,-,N/A,,Clear,90,2012-12-09 02:53:00
9:53 PM,37.0,33.1,86,29.66,10.0,East,5.8,-,N/A,,Clear,100,2012-12-09 03:53:00
10:53 PM,30.9,28.9,92,29.72,7.0,North,10.4,-,N/A,,Clear,10,2012-12-09 04:53:00
11:16 PM,33.8,30.2,87,29.74,7.0,North,12.7,-,N/A,,Mostly Cloudy,10,2012-12-09 05:16:00
11:29 PM,33.8,30.2,87,29.75,7.0,NNE,16.1,-,N/A,,Mostly Cloudy,20,2012-12-09 05:29:00
11:39 PM,33.8,30.2,87,29.77,5.0,North,15.0,-,N/A,,Overcast,10,2012-12-09 05:39:00
11:48 PM,33.8,32.0,93,29.77,1.8,NNE,15.0,-,N/A,,Overcast,30,2012-12-09 05:48:00
11:53 PM,34.0,32.0,92,29.78,1.5,NNE,12.7,20.7,N/A,,Overcast,20,2012-12-09 05:53:00